createdAt,value
2023-02-11T00:00:06.691Z,-3.15
2023-02-11T00:00:45.782Z,-3.15
2023-02-11T00:01:30.464Z,-3.19
2023-02-11T00:02:09.962Z,-3.22
2023-02-11T00:02:56.850Z,-3.22
2023-02-11T00:03:36.749Z,-3.23
2023-02-11T00:04:20.374Z,-3.20
2023-02-11T00:05:01.526Z,-3.15
2023-02-11T00:05:41.235Z,-3.15
2023-02-11T00:07:14.521Z,-3.08
2023-02-11T00:08:18.681Z,-3.09
2023-02-11T00:09:43.924Z,-3.11
2023-02-11T00:10:31.344Z,-3.07
2023-02-11T00:11:20.312Z,-3.08
2023-02-11T00:12:00.349Z,-3.05
2023-02-11T00:12:42.718Z,-3.03
2023-02-11T00:13:27.671Z,-3.00
2023-02-11T00:15:25.470Z,-3.00
2023-02-11T00:16:14.211Z,-2.95
2023-02-11T00:16:54.657Z,-2.93
2023-02-11T00:17:36.791Z,-2.98
2023-02-11T00:18:15.568Z,-3.01
2023-02-11T00:19:02.872Z,-3.05
2023-02-11T00:19:44.585Z,-3.05
2023-02-11T00:20:23.739Z,-3.07
2023-02-11T00:21:54.774Z,-3.07
2023-02-11T00:22:36.336Z,-3.08
2023-02-11T00:23:40.641Z,-3.03
2023-02-11T00:24:19.354Z,-3.03
2023-02-11T00:25:01.640Z,-3.08
2023-02-11T00:25:46.025Z,-3.11
2023-02-11T00:30:00.615Z,-3.19
2023-02-11T00:32:05.297Z,-3.24
2023-02-11T00:33:24.366Z,-3.22
2023-02-11T00:34:41.243Z,-3.31
2023-02-11T00:35:21.767Z,-3.24
2023-02-11T00:36:08.987Z,-3.24
2023-02-11T00:37:03.085Z,-3.23
2023-02-11T00:37:42.471Z,-3.22
2023-02-11T00:38:22.618Z,-3.20
2023-02-11T00:39:15.752Z,-3.19
2023-02-11T00:39:57.375Z,-3.24
2023-02-11T00:42:07.543Z,-3.25
2023-02-11T00:44:05.222Z,-3.27
2023-02-11T00:46:10.997Z,-3.36
2023-02-11T00:46:59.456Z,-3.35
2023-02-11T00:49:00.344Z,-3.36
2023-02-11T00:49:40.537Z,-3.38
2023-02-11T00:50:20.081Z,-3.38
2023-02-11T00:50:59.656Z,-3.38
2023-02-11T00:52:16.048Z,-3.40
2023-02-11T00:52:55.105Z,-3.38
2023-02-11T00:53:42.834Z,-3.41
2023-02-11T00:54:48.153Z,-3.41
2023-02-11T00:55:26.757Z,-3.40
2023-02-11T00:56:09.546Z,-3.43
2023-02-11T00:56:49.904Z,-3.43
2023-02-11T00:57:29.038Z,-3.46
2023-02-11T00:58:10.794Z,-3.46
2023-02-11T00:58:50.310Z,-3.47
2023-02-11T00:59:30.010Z,-3.47
2023-02-11T01:00:15.333Z,-3.48
2023-02-11T01:02:07.619Z,-3.53
2023-02-11T01:02:46.979Z,-3.54
2023-02-11T01:03:27.497Z,-3.54
2023-02-11T01:04:07.470Z,-3.57
2023-02-11T01:04:50.137Z,-3.57
2023-02-11T01:05:29.005Z,-3.58
2023-02-11T01:06:09.955Z,-3.60
2023-02-11T01:07:32.150Z,-3.62
2023-02-11T01:08:12.313Z,-3.65
2023-02-11T01:09:31.778Z,-3.70
2023-02-11T01:10:11.568Z,-3.73
2023-02-11T01:10:54.081Z,-3.73
2023-02-11T01:11:41.408Z,-3.76
2023-02-11T01:12:20.885Z,-3.78
2023-02-11T01:13:01.939Z,-3.80
2023-02-11T01:13:40.796Z,-3.78
2023-02-11T01:14:27.852Z,-3.81
2023-02-11T01:15:09.330Z,-3.82
2023-02-11T01:15:50.597Z,-3.80
2023-02-11T01:16:30.238Z,-3.79
2023-02-11T01:17:17.784Z,-3.82
2023-02-11T01:18:11.026Z,-3.82
2023-02-11T01:20:15.848Z,-3.81
2023-02-11T01:21:33.069Z,-3.82
2023-02-11T01:22:16.363Z,-3.79
2023-02-11T01:23:35.185Z,-3.82
2023-02-11T01:25:04.109Z,-3.78
2023-02-11T01:25:43.047Z,-3.76
2023-02-11T01:26:25.117Z,-3.75
2023-02-11T01:27:13.935Z,-3.77
2023-02-11T01:27:53.097Z,-3.73
2023-02-11T01:29:09.727Z,-3.68
2023-02-11T01:29:58.844Z,-3.69
2023-02-11T01:31:03.086Z,-3.66
2023-02-11T01:31:42.027Z,-3.65
2023-02-11T01:33:22.823Z,-3.60
2023-02-11T01:34:02.770Z,-3.57
2023-02-11T01:34:55.020Z,-3.56
2023-02-11T01:35:36.709Z,-3.55
2023-02-11T01:36:19.038Z,-3.54
2023-02-11T01:37:00.870Z,-3.54
2023-02-11T01:38:04.831Z,-3.51
2023-02-11T01:38:44.790Z,-3.52
2023-02-11T01:39:34.389Z,-3.50
2023-02-11T01:40:23.965Z,-3.52
2023-02-11T01:41:15.019Z,-3.52
2023-02-11T01:41:55.424Z,-3.50
2023-02-11T01:42:43.957Z,-3.51
2023-02-11T01:43:22.901Z,-3.50
2023-02-11T01:44:29.350Z,-3.51
2023-02-11T01:45:08.854Z,-3.51
2023-02-11T01:45:59.888Z,-3.50
2023-02-11T01:46:48.958Z,-3.54
2023-02-11T01:47:28.058Z,-3.52
2023-02-11T01:48:21.295Z,-3.53
2023-02-11T01:51:27.683Z,-3.53
2023-02-11T01:52:12.675Z,-3.51
2023-02-11T01:53:31.845Z,-3.47
2023-02-11T01:54:52.632Z,-3.46
2023-02-11T01:55:53.604Z,-3.42
2023-02-11T01:56:56.256Z,-3.40
2023-02-11T01:58:39.755Z,-3.43
2023-02-11T01:59:46.388Z,-3.43
2023-02-11T02:01:07.047Z,-3.42
2023-02-11T02:01:57.783Z,-3.42
2023-02-11T02:04:05.830Z,-3.41
2023-02-11T02:04:45.630Z,-3.40
2023-02-11T02:06:01.878Z,-3.38
2023-02-11T02:07:36.751Z,-3.40
2023-02-11T02:08:29.552Z,-3.43
2023-02-11T02:09:22.045Z,-3.45
2023-02-11T02:10:00.931Z,-3.43
2023-02-11T02:10:46.996Z,-3.46
2023-02-11T02:11:36.204Z,-3.42
2023-02-11T02:12:27.970Z,-3.45
2023-02-11T02:13:07.533Z,-3.40
2023-02-11T02:13:47.478Z,-3.41
2023-02-11T02:14:27.111Z,-3.40
2023-02-11T02:15:20.813Z,-3.37
2023-02-11T02:17:45.385Z,-3.35
2023-02-11T02:19:15.612Z,-3.36
2023-02-11T02:21:07.138Z,-3.38
2023-02-11T02:22:35.257Z,-3.38
2023-02-11T02:23:54.033Z,-3.41
2023-02-11T02:24:44.897Z,-3.43
2023-02-11T02:25:52.620Z,-3.51
2023-02-11T02:26:32.011Z,-3.48
2023-02-11T02:27:27.660Z,-3.49
2023-02-11T02:30:00.608Z,-3.45
2023-02-11T02:31:27.685Z,-3.46
2023-02-11T02:32:36.486Z,-3.44
2023-02-11T02:33:38.675Z,-3.44
2023-02-11T02:34:48.711Z,-3.44
2023-02-11T02:35:57.861Z,-3.46
2023-02-11T02:37:38.407Z,-3.44
2023-02-11T02:38:57.423Z,-3.44
2023-02-11T02:41:24.482Z,-3.45
2023-02-11T02:42:02.782Z,-3.48
2023-02-11T02:42:44.705Z,-3.48
2023-02-11T02:43:23.757Z,-3.48
2023-02-11T02:44:04.917Z,-3.53
2023-02-11T02:44:46.776Z,-3.55
2023-02-11T02:45:30.649Z,-3.57
2023-02-11T02:46:20.698Z,-3.56
2023-02-11T02:47:01.350Z,-3.56
2023-02-11T02:47:41.046Z,-3.55
2023-02-11T02:48:19.888Z,-3.53
2023-02-11T02:48:59.817Z,-3.53
2023-02-11T02:50:35.102Z,-3.56
2023-02-11T02:51:13.638Z,-3.53
2023-02-11T02:52:11.755Z,-3.51
2023-02-11T02:54:25.858Z,-3.51
2023-02-11T02:56:05.002Z,-3.52
2023-02-11T02:56:55.925Z,-3.49
2023-02-11T02:57:56.444Z,-3.51
2023-02-11T02:58:47.661Z,-3.54
2023-02-11T02:59:42.181Z,-3.57
2023-02-11T03:00:51.544Z,-3.54
2023-02-11T03:01:54.835Z,-3.52
2023-02-11T03:03:16.110Z,-3.53
2023-02-11T03:04:13.721Z,-3.54
2023-02-11T03:04:54.057Z,-3.52
2023-02-11T03:06:09.160Z,-3.49
2023-02-11T03:06:49.800Z,-3.50
2023-02-11T03:08:12.821Z,-3.51
2023-02-11T03:09:57.133Z,-3.51
2023-02-11T03:10:41.848Z,-3.51
2023-02-11T03:11:28.171Z,-3.52
2023-02-11T03:12:08.779Z,-3.51
2023-02-11T03:13:12.368Z,-3.48
2023-02-11T03:14:04.953Z,-3.47
2023-02-11T03:14:45.965Z,-3.45
2023-02-11T03:15:31.451Z,-3.47
2023-02-11T03:16:26.257Z,-3.47
2023-02-11T03:17:18.762Z,-3.49
2023-02-11T03:18:35.804Z,-3.49
2023-02-11T03:19:21.703Z,-3.49
2023-02-11T03:20:00.806Z,-3.48
2023-02-11T03:20:48.645Z,-3.47
2023-02-11T03:21:33.091Z,-3.45
2023-02-11T03:22:22.915Z,-3.43
2023-02-11T03:23:02.148Z,-3.44
2023-02-11T03:23:52.006Z,-3.46
2023-02-11T03:26:54.729Z,-3.49
2023-02-11T03:27:55.890Z,-3.48
2023-02-11T03:29:32.358Z,-3.48
2023-02-11T03:30:28.720Z,-3.48
2023-02-11T03:31:20.864Z,-3.51
2023-02-11T03:32:16.176Z,-3.49
2023-02-11T03:33:12.638Z,-3.47
2023-02-11T03:35:25.892Z,-3.50
2023-02-11T03:36:15.249Z,-3.52
2023-02-11T03:38:09.741Z,-3.46
2023-02-11T03:38:58.769Z,-3.46
2023-02-11T03:39:57.424Z,-3.43
2023-02-11T03:40:40.106Z,-3.46
2023-02-11T03:41:31.552Z,-3.46
2023-02-11T03:42:14.673Z,-3.44
2023-02-11T03:43:17.505Z,-3.42
2023-02-11T03:43:56.680Z,-3.43
2023-02-11T03:44:47.469Z,-3.45
2023-02-11T03:46:09.719Z,-3.48
2023-02-11T03:46:57.130Z,-3.49
2023-02-11T03:47:40.046Z,-3.49
2023-02-11T03:48:32.204Z,-3.52
2023-02-11T03:49:20.148Z,-3.53
2023-02-11T03:52:48.468Z,-3.58
2023-02-11T03:53:27.351Z,-3.55
2023-02-11T03:54:12.566Z,-3.55
2023-02-11T03:54:58.016Z,-3.54
2023-02-11T03:55:42.360Z,-3.54
2023-02-11T03:56:29.387Z,-3.53
2023-02-11T03:57:09.502Z,-3.53
2023-02-11T03:58:27.708Z,-3.55
2023-02-11T03:59:10.149Z,-3.53
2023-02-11T03:59:48.991Z,-3.50
2023-02-11T04:00:37.672Z,-3.50
2023-02-11T04:01:17.014Z,-3.49
2023-02-11T04:01:57.782Z,-3.54
2023-02-11T04:02:36.822Z,-3.53
2023-02-11T04:03:16.416Z,-3.56
2023-02-11T04:03:56.347Z,-3.54
2023-02-11T04:04:36.082Z,-3.51
2023-02-11T04:05:17.845Z,-3.49
2023-02-11T04:07:02.321Z,-3.49
2023-02-11T04:07:51.087Z,-3.49
2023-02-11T04:08:31.989Z,-3.49
2023-02-11T04:09:36.946Z,-3.50
2023-02-11T04:11:16.199Z,-3.50
2023-02-11T04:12:19.591Z,-3.47
2023-02-11T04:13:02.172Z,-3.47
2023-02-11T04:13:41.174Z,-3.52
2023-02-11T04:14:20.112Z,-3.50
2023-02-11T04:14:59.120Z,-3.47
2023-02-11T04:15:38.396Z,-3.49
2023-02-11T04:17:14.064Z,-3.46
2023-02-11T04:17:54.429Z,-3.44
2023-02-11T04:18:33.919Z,-3.45
2023-02-11T04:19:14.581Z,-3.43
2023-02-11T04:19:56.857Z,-3.49
2023-02-11T04:20:42.908Z,-3.46
2023-02-11T04:21:22.384Z,-3.44
2023-02-11T04:22:27.201Z,-3.45
2023-02-11T04:23:45.104Z,-3.43
2023-02-11T04:25:02.382Z,-3.42
2023-02-11T04:25:43.490Z,-3.44
2023-02-11T04:26:23.166Z,-3.41
2023-02-11T04:30:34.818Z,-3.37
2023-02-11T04:31:15.284Z,-3.38
2023-02-11T04:32:43.733Z,-3.36
2023-02-11T04:33:23.060Z,-3.34
2023-02-11T04:34:02.189Z,-3.36
2023-02-11T04:35:46.638Z,-3.33
2023-02-11T04:36:29.386Z,-3.33
2023-02-11T04:37:08.725Z,-3.32
2023-02-11T04:37:48.815Z,-3.33
2023-02-11T04:38:32.314Z,-3.34
2023-02-11T04:40:33.528Z,-3.40
2023-02-11T04:41:52.831Z,-3.40
2023-02-11T04:42:32.209Z,-3.41
2023-02-11T04:43:11.873Z,-3.43
2023-02-11T04:43:51.120Z,-3.42
2023-02-11T04:44:32.816Z,-3.40
2023-02-11T04:45:15.264Z,-3.40
2023-02-11T04:46:02.894Z,-3.37
2023-02-11T04:46:45.155Z,-3.35
2023-02-11T04:48:13.204Z,-3.41
2023-02-11T04:48:53.448Z,-3.40
2023-02-11T04:49:33.131Z,-3.41
2023-02-11T04:50:13.245Z,-3.39
2023-02-11T04:50:52.536Z,-3.42
2023-02-11T04:54:31.237Z,-3.42
2023-02-11T04:56:01.864Z,-3.40
2023-02-11T04:56:41.280Z,-3.45
2023-02-11T04:58:48.779Z,-3.44
2023-02-11T04:59:28.458Z,-3.42
2023-02-11T05:00:10.187Z,-3.40
2023-02-11T05:01:43.094Z,-3.44
2023-02-11T05:03:51.170Z,-3.45
2023-02-11T05:04:30.376Z,-3.48
2023-02-11T05:05:10.740Z,-3.52
2023-02-11T05:05:49.386Z,-3.51
2023-02-11T05:06:53.805Z,-3.48
2023-02-11T05:08:57.815Z,-3.49
2023-02-11T05:09:36.875Z,-3.46
2023-02-11T05:10:40.993Z,-3.49
2023-02-11T05:11:21.328Z,-3.53
2023-02-11T05:12:00.715Z,-3.56
2023-02-11T05:12:39.853Z,-3.55
2023-02-11T05:13:19.146Z,-3.56
2023-02-11T05:13:58.970Z,-3.56
2023-02-11T05:15:27.166Z,-3.58
2023-02-11T05:16:06.296Z,-3.60
2023-02-11T05:16:45.647Z,-3.58
2023-02-11T05:17:26.256Z,-3.61
2023-02-11T05:18:06.590Z,-3.61
2023-02-11T05:18:46.475Z,-3.62
2023-02-11T05:19:26.092Z,-3.66
2023-02-11T05:20:44.036Z,-3.83
2023-02-11T05:21:23.431Z,-3.79
2023-02-11T05:22:04.814Z,-3.77
2023-02-11T05:22:45.719Z,-3.75
2023-02-11T05:23:25.280Z,-3.73
2023-02-11T05:24:06.056Z,-3.72
2023-02-11T05:24:45.770Z,-3.74
2023-02-11T05:25:25.086Z,-3.75
2023-02-11T05:26:05.951Z,-3.76
2023-02-11T05:26:45.159Z,-3.78
2023-02-11T05:27:24.227Z,-3.84
2023-02-11T05:28:04.916Z,-3.86
2023-02-11T05:28:44.774Z,-3.82
2023-02-11T05:29:24.194Z,-3.86
2023-02-11T05:30:05.745Z,-3.82
2023-02-11T05:33:25.863Z,-3.80
2023-02-11T05:34:13.271Z,-3.81
2023-02-11T05:36:26.925Z,-3.86
2023-02-11T05:37:10.379Z,-3.86
2023-02-11T05:38:28.120Z,-3.89
2023-02-11T05:39:07.131Z,-3.87
2023-02-11T05:39:45.886Z,-3.87
2023-02-11T05:40:28.199Z,-3.90
2023-02-11T05:44:01.302Z,-3.93
2023-02-11T05:45:19.335Z,-3.94
2023-02-11T05:46:00.984Z,-3.95
2023-02-11T05:46:50.869Z,-3.98
2023-02-11T05:48:38.310Z,-4.00
2023-02-11T05:49:18.847Z,-4.00
2023-02-11T05:50:05.125Z,-4.02
2023-02-11T05:50:53.276Z,-4.06
2023-02-11T05:51:40.740Z,-4.05
2023-02-11T05:52:19.924Z,-4.08
2023-02-11T05:53:00.288Z,-4.08
2023-02-11T05:53:43.027Z,-4.08
2023-02-11T05:54:22.175Z,-4.08
2023-02-11T05:55:03.940Z,-4.11
2023-02-11T05:55:43.136Z,-4.13
2023-02-11T05:56:32.780Z,-4.14
2023-02-11T05:57:12.032Z,-4.11
2023-02-11T05:57:51.195Z,-4.11
2023-02-11T05:58:54.771Z,-4.07
2023-02-11T05:59:47.045Z,-4.09
2023-02-11T06:01:04.434Z,-4.05
2023-02-11T06:01:51.897Z,-4.01
2023-02-11T06:03:25.479Z,-3.98
2023-02-11T06:04:06.069Z,-3.94
2023-02-11T06:04:54.956Z,-3.93
2023-02-11T06:05:34.453Z,-3.93
2023-02-11T06:06:28.001Z,-3.90
2023-02-11T06:07:10.168Z,-3.87
2023-02-11T06:07:52.746Z,-3.87
2023-02-11T06:08:36.974Z,-3.81
2023-02-11T06:09:17.134Z,-3.80
2023-02-11T06:09:56.342Z,-3.80
2023-02-11T06:10:35.227Z,-3.76
2023-02-11T06:11:24.045Z,-3.70
2023-02-11T06:12:17.001Z,-3.64
2023-02-11T06:12:56.834Z,-3.59
2023-02-11T06:13:36.627Z,-3.56
2023-02-11T06:14:16.197Z,-3.51
2023-02-11T06:14:55.174Z,-3.47
2023-02-11T06:15:42.151Z,-3.41
2023-02-11T06:16:21.315Z,-3.38
2023-02-11T06:17:25.599Z,-3.41
2023-02-11T06:18:53.211Z,-3.33
2023-02-11T06:19:32.827Z,-3.32
2023-02-11T06:21:44.129Z,-3.17
2023-02-11T06:22:26.954Z,-3.07
2023-02-11T06:23:07.424Z,-3.00
2023-02-11T06:23:49.882Z,-2.98
2023-02-11T06:24:54.599Z,-2.97
2023-02-11T06:25:32.009Z,-2.91
2023-02-11T06:26:21.164Z,-2.90
2023-02-11T06:26:59.947Z,-2.84
2023-02-11T06:27:39.759Z,-2.87
2023-02-11T06:28:20.136Z,-2.82
2023-02-11T06:30:19.297Z,-2.64
2023-02-11T06:31:36.952Z,-2.57
2023-02-11T06:32:37.042Z,-2.53
2023-02-11T06:33:15.839Z,-2.47
2023-02-11T06:33:55.697Z,-2.41
2023-02-11T06:34:35.901Z,-2.38
2023-02-11T06:36:22.097Z,-2.31
2023-02-11T06:37:00.999Z,-2.25
2023-02-11T06:37:41.549Z,-2.28
2023-02-11T06:38:30.714Z,-2.25
2023-02-11T06:39:10.423Z,-2.16
2023-02-11T06:40:33.701Z,-2.02
2023-02-11T06:42:02.207Z,-2.01
2023-02-11T06:42:41.878Z,-1.95
2023-02-11T06:43:24.213Z,-1.91
2023-02-11T06:44:13.072Z,-1.84
2023-02-11T06:44:52.451Z,-1.77
2023-02-11T06:46:50.742Z,-1.68
2023-02-11T06:47:34.360Z,-1.66
2023-02-11T06:48:56.418Z,-1.56
2023-02-11T06:49:35.811Z,-1.54
2023-02-11T06:50:16.224Z,-1.49
2023-02-11T06:50:56.419Z,-1.52
2023-02-11T06:51:35.464Z,-1.46
2023-02-11T06:52:27.037Z,-1.41
2023-02-11T06:53:07.204Z,-1.39
2023-02-11T06:54:11.625Z,-1.35
2023-02-11T06:55:49.410Z,-1.28
2023-02-11T06:57:31.044Z,-1.17
2023-02-11T06:58:54.859Z,-1.14
2023-02-11T07:00:13.923Z,-1.11
2023-02-11T07:00:56.104Z,-1.03
2023-02-11T07:02:21.347Z,-1.06
2023-02-11T07:04:28.951Z,-1.02
2023-02-11T07:05:15.965Z,-0.92
2023-02-11T07:05:55.181Z,-0.93
2023-02-11T07:06:58.600Z,-0.99
2023-02-11T07:08:16.583Z,-0.83
2023-02-11T07:09:38.375Z,-0.86
2023-02-11T07:10:31.622Z,-0.80
2023-02-11T07:11:18.838Z,-0.82
2023-02-11T07:11:57.924Z,-0.77
2023-02-11T07:12:57.015Z,-0.84
2023-02-11T07:14:41.611Z,-0.81
2023-02-11T07:16:06.476Z,-0.70
2023-02-11T07:16:45.897Z,-0.62
2023-02-11T07:17:26.576Z,-0.65
2023-02-11T07:18:06.303Z,-0.68
2023-02-11T07:18:47.191Z,-0.68
2023-02-11T07:19:28.896Z,-0.67
2023-02-11T07:20:09.705Z,-0.71
2023-02-11T07:20:52.378Z,-0.67
2023-02-11T07:21:44.306Z,-0.69
2023-02-11T07:23:42.864Z,-0.57
2023-02-11T07:24:32.656Z,-0.64
2023-02-11T07:25:21.977Z,-0.62
2023-02-11T07:26:26.105Z,-0.69
2023-02-11T07:28:12.078Z,-0.70
2023-02-11T07:29:00.528Z,-0.64
2023-02-11T07:29:42.782Z,-0.63
2023-02-11T07:30:30.867Z,-0.67
2023-02-11T07:31:16.391Z,-0.63
2023-02-11T07:32:06.385Z,-0.65
2023-02-11T07:33:25.075Z,-0.77
2023-02-11T07:34:07.179Z,-0.76
2023-02-11T07:34:46.048Z,-0.79
2023-02-11T07:35:28.164Z,-0.83
2023-02-11T07:37:11.035Z,-0.88
2023-02-11T07:37:50.328Z,-0.82
2023-02-11T07:39:13.097Z,-0.96
2023-02-11T07:39:55.285Z,-1.00
2023-02-11T07:40:36.985Z,-1.06
2023-02-11T07:41:24.902Z,-0.98
2023-02-11T07:42:04.262Z,-0.93
2023-02-11T07:42:43.268Z,-0.94
2023-02-11T07:43:25.203Z,-0.88
2023-02-11T07:44:12.332Z,-0.96
2023-02-11T07:45:55.439Z,-0.90
2023-02-11T07:47:12.947Z,-0.80
2023-02-11T07:47:52.248Z,-0.79
2023-02-11T07:49:30.064Z,-0.69
2023-02-11T07:50:10.423Z,-0.71
2023-02-11T07:50:50.520Z,-0.71
2023-02-11T07:51:53.670Z,-0.68
2023-02-11T07:53:42.147Z,-0.70
2023-02-11T07:54:21.553Z,-0.67
2023-02-11T07:55:13.115Z,-0.57
2023-02-11T07:55:52.712Z,-0.57
2023-02-11T07:56:34.007Z,-0.52
2023-02-11T07:57:20.840Z,-0.49
2023-02-11T07:58:08.240Z,-0.57
2023-02-11T07:58:56.897Z,-0.61
2023-02-11T07:59:36.206Z,-0.51
2023-02-11T08:00:15.790Z,-0.41
2023-02-11T08:01:07.062Z,-0.39
2023-02-11T08:01:51.480Z,-0.42
2023-02-11T08:02:32.462Z,-0.47
2023-02-11T08:03:12.932Z,-0.43
2023-02-11T08:03:55.054Z,-0.39
2023-02-11T08:04:42.186Z,-0.30
2023-02-11T08:05:21.176Z,-0.28
2023-02-11T08:06:08.267Z,-0.29
2023-02-11T08:06:48.670Z,-0.27
2023-02-11T08:07:29.905Z,-0.25
2023-02-11T08:08:08.876Z,-0.28
2023-02-11T08:08:51.878Z,-0.30
2023-02-11T08:09:34.436Z,-0.30
2023-02-11T08:10:22.085Z,-0.27
2023-02-11T08:11:09.974Z,-0.21
2023-02-11T08:12:13.863Z,-0.19
2023-02-11T08:14:33.060Z,-0.17
2023-02-11T08:15:12.027Z,-0.09
2023-02-11T08:15:52.535Z,-0.11
2023-02-11T08:16:35.013Z,-0.10
2023-02-11T08:17:24.196Z,-0.13
2023-02-11T08:18:27.850Z,-0.06
2023-02-11T08:19:07.851Z,-0.04
2023-02-11T08:19:57.287Z,-0.09
2023-02-11T08:21:14.240Z,0.03
2023-02-11T08:24:17.007Z,0.03
2023-02-11T08:25:35.672Z,0.12
2023-02-11T08:26:57.277Z,0.08
2023-02-11T08:27:39.218Z,0.13
2023-02-11T08:28:43.954Z,0.23
2023-02-11T08:30:11.530Z,0.30
2023-02-11T08:30:55.636Z,0.36
2023-02-11T08:31:40.543Z,0.36
2023-02-11T08:32:21.128Z,0.37
2023-02-11T08:33:08.364Z,0.41
2023-02-11T08:34:12.084Z,0.35
2023-02-11T08:35:40.851Z,0.38
2023-02-11T08:36:31.171Z,0.44
2023-02-11T08:37:19.693Z,0.62
2023-02-11T08:38:23.514Z,0.55
2023-02-11T08:40:21.858Z,0.76
2023-02-11T08:41:01.794Z,0.83
2023-02-11T08:42:22.426Z,0.76
2023-02-11T08:45:00.398Z,0.97
2023-02-11T08:45:47.449Z,0.86
2023-02-11T08:46:26.539Z,0.88
2023-02-11T08:47:06.198Z,0.88
2023-02-11T08:47:48.311Z,0.90
2023-02-11T08:48:51.650Z,0.96
2023-02-11T08:51:19.185Z,1.06
2023-02-11T08:52:02.230Z,0.98
2023-02-11T08:52:44.712Z,1.07
2023-02-11T08:53:27.607Z,1.06
2023-02-11T08:54:09.925Z,1.08
2023-02-11T08:54:59.264Z,1.08
2023-02-11T08:55:39.466Z,1.06
2023-02-11T08:56:20.552Z,1.23
2023-02-11T08:57:01.972Z,1.23
2023-02-11T08:57:44.250Z,1.24
2023-02-11T08:58:23.499Z,1.32
2023-02-11T08:59:03.638Z,1.42
2023-02-11T08:59:42.317Z,1.54
2023-02-11T09:00:34.176Z,1.63
2023-02-11T09:01:22.964Z,1.76
2023-02-11T09:02:14.169Z,1.82
2023-02-11T09:03:41.545Z,1.93
2023-02-11T09:04:44.860Z,1.99
2023-02-11T09:06:06.488Z,1.98
2023-02-11T09:06:44.882Z,2.09
2023-02-11T09:07:28.827Z,2.10
2023-02-11T09:08:13.005Z,2.07
2023-02-11T09:08:55.755Z,2.06
2023-02-11T09:09:36.399Z,2.24
2023-02-11T09:10:15.271Z,2.32
2023-02-11T09:10:57.368Z,2.22
2023-02-11T09:12:01.527Z,2.35
2023-02-11T09:12:57.215Z,2.57
2023-02-11T09:13:46.409Z,2.62
2023-02-11T09:14:25.381Z,2.72
2023-02-11T09:15:06.082Z,2.59
2023-02-11T09:15:48.271Z,2.67
2023-02-11T09:16:30.334Z,2.81
2023-02-11T09:17:09.455Z,2.88
2023-02-11T09:17:59.278Z,2.92
2023-02-11T09:19:50.001Z,3.05
2023-02-11T09:20:32.606Z,3.11
2023-02-11T09:21:12.661Z,3.04
2023-02-11T09:21:52.832Z,3.09
2023-02-11T09:23:22.896Z,3.21
2023-02-11T09:24:02.451Z,3.14
2023-02-11T09:24:42.370Z,3.05
2023-02-11T09:26:41.234Z,2.82
2023-02-11T09:27:28.308Z,2.93
2023-02-11T09:28:11.640Z,2.80
2023-02-11T09:28:52.236Z,2.83
2023-02-11T09:33:48.047Z,3.13
2023-02-11T09:34:41.140Z,3.26
2023-02-11T09:35:49.210Z,3.28
2023-02-11T09:36:32.590Z,3.03
2023-02-11T09:37:21.110Z,3.06
2023-02-11T09:38:01.364Z,3.12
2023-02-11T09:39:32.671Z,3.07
2023-02-11T09:40:20.819Z,2.97
2023-02-11T09:41:04.081Z,3.03
2023-02-11T09:42:11.354Z,3.14
2023-02-11T09:43:53.769Z,3.06
2023-02-11T09:44:32.908Z,3.00
2023-02-11T09:45:41.269Z,2.98
2023-02-11T09:46:25.737Z,2.98
2023-02-11T09:48:05.790Z,3.10
2023-02-11T09:50:10.453Z,3.19
2023-02-11T09:51:04.166Z,3.40
2023-02-11T09:52:18.660Z,3.49
2023-02-11T09:54:30.880Z,3.47
2023-02-11T09:56:39.004Z,3.47
2023-02-11T09:57:29.037Z,3.55
2023-02-11T09:58:34.041Z,3.58
2023-02-11T10:01:52.924Z,3.92
2023-02-11T10:04:08.392Z,3.99
2023-02-11T10:05:27.345Z,3.96
2023-02-11T10:06:57.911Z,3.89
2023-02-11T10:08:15.837Z,4.10
2023-02-11T10:11:31.218Z,3.98
2023-02-11T10:12:48.036Z,3.87
2023-02-11T10:14:45.239Z,3.86
2023-02-11T10:15:56.269Z,3.98
2023-02-11T10:18:54.630Z,4.07
2023-02-11T10:21:27.957Z,4.13
2023-02-11T10:22:07.064Z,4.06
2023-02-11T10:22:52.650Z,4.15
2023-02-11T10:25:05.814Z,4.05
2023-02-11T10:26:20.850Z,4.12
2023-02-11T10:28:34.791Z,4.21
2023-02-11T10:29:36.857Z,3.91
2023-02-11T10:30:26.539Z,4.00
2023-02-11T10:31:15.846Z,4.06
2023-02-11T10:32:22.072Z,3.81
2023-02-11T10:33:21.523Z,4.03
2023-02-11T10:36:54.175Z,4.10
2023-02-11T10:38:48.200Z,4.10
2023-02-11T10:39:52.209Z,4.16
2023-02-11T10:41:38.131Z,4.19
2023-02-11T10:43:03.701Z,4.16
2023-02-11T10:43:44.346Z,4.12
2023-02-11T10:44:31.153Z,4.09
2023-02-11T10:45:29.951Z,4.18
2023-02-11T10:46:19.620Z,4.22
2023-02-11T10:47:25.393Z,4.28
2023-02-11T10:48:53.025Z,4.21
2023-02-11T10:50:35.337Z,4.18
2023-02-11T10:51:28.567Z,4.12
2023-02-11T10:52:31.788Z,4.28
2023-02-11T10:54:37.225Z,4.39
2023-02-11T10:55:23.221Z,4.49
2023-02-11T10:56:40.919Z,4.41
2023-02-11T10:57:33.643Z,4.29
2023-02-11T10:58:28.688Z,4.38
2023-02-11T10:59:27.576Z,4.46
2023-02-11T11:00:39.017Z,4.34
2023-02-11T11:02:01.875Z,4.45
2023-02-11T11:03:27.521Z,4.49
2023-02-11T11:05:31.398Z,4.60
2023-02-11T11:06:13.667Z,4.57
2023-02-11T11:07:24.921Z,4.72
2023-02-11T11:09:01.331Z,4.60
2023-02-11T11:11:08.114Z,4.76
2023-02-11T11:12:12.167Z,4.84
2023-02-11T11:12:51.670Z,4.94
2023-02-11T11:13:40.009Z,5.02
2023-02-11T11:14:20.455Z,5.07
2023-02-11T11:15:11.448Z,5.07
2023-02-11T11:16:13.249Z,5.02
2023-02-11T11:17:32.513Z,4.88
2023-02-11T11:19:15.529Z,4.90
2023-02-11T11:20:13.862Z,4.90
2023-02-11T11:22:22.953Z,4.97
2023-02-11T11:23:20.322Z,4.99
2023-02-11T11:25:44.528Z,5.16
2023-02-11T11:26:50.743Z,5.49
2023-02-11T11:30:39.405Z,5.13
2023-02-11T11:33:03.325Z,5.47
2023-02-11T11:34:48.508Z,5.49
2023-02-11T11:37:33.052Z,5.62
2023-02-11T11:38:15.010Z,5.56
2023-02-11T11:39:04.800Z,5.64
2023-02-11T11:40:38.049Z,5.69
2023-02-11T11:41:53.779Z,5.67
2023-02-11T11:42:32.994Z,5.77
2023-02-11T11:43:15.203Z,5.92
2023-02-11T11:45:33.497Z,5.93
2023-02-11T11:47:15.021Z,5.83
2023-02-11T11:48:25.239Z,6.00
2023-02-11T11:50:52.441Z,5.94
2023-02-11T11:53:31.255Z,6.13
2023-02-11T11:54:17.820Z,6.12
2023-02-11T11:55:24.891Z,6.26
2023-02-11T11:56:09.287Z,6.21
2023-02-11T11:57:06.278Z,6.18
2023-02-11T11:57:49.104Z,6.27
2023-02-11T11:58:30.134Z,6.16
2023-02-11T12:00:05.126Z,6.17
2023-02-11T12:01:22.647Z,6.04
2023-02-11T12:02:56.327Z,6.11
2023-02-11T12:03:37.993Z,6.22
2023-02-11T12:04:30.057Z,6.08
2023-02-11T12:05:27.086Z,6.08
2023-02-11T12:06:19.222Z,6.18
2023-02-11T12:07:12.790Z,6.11
2023-02-11T12:08:31.793Z,5.99
2023-02-11T12:09:43.936Z,6.00
2023-02-11T12:11:31.567Z,6.15
2023-02-11T12:12:36.013Z,6.07
2023-02-11T12:13:29.702Z,6.20
2023-02-11T12:14:25.033Z,6.02
2023-02-11T12:15:32.680Z,6.17
2023-02-11T12:17:25.581Z,6.05
2023-02-11T12:18:40.074Z,6.21
2023-02-11T12:20:01.446Z,6.17
2023-02-11T12:21:09.364Z,5.94
2023-02-11T12:22:21.813Z,6.07
2023-02-11T12:24:46.591Z,5.94
2023-02-11T12:26:53.456Z,5.95
2023-02-11T12:28:03.273Z,6.04
2023-02-11T12:28:58.518Z,6.06
2023-02-11T12:30:04.018Z,6.04
2023-02-11T12:30:44.572Z,6.13
2023-02-11T12:32:28.630Z,6.12
2023-02-11T12:35:02.049Z,6.09
2023-02-11T12:36:09.472Z,6.13
2023-02-11T12:36:54.461Z,5.87
2023-02-11T12:37:45.869Z,6.08
2023-02-11T12:38:45.233Z,6.16
2023-02-11T12:39:51.684Z,6.00
2023-02-11T12:40:42.957Z,5.98
2023-02-11T12:42:01.185Z,5.80
2023-02-11T12:43:18.834Z,5.99
2023-02-11T12:44:01.602Z,5.85
2023-02-11T12:46:41.223Z,5.91
2023-02-11T12:47:20.056Z,5.84
2023-02-11T12:48:22.685Z,5.89
2023-02-11T12:49:30.122Z,5.70
2023-02-11T12:50:48.322Z,5.57
2023-02-11T12:51:58.366Z,5.44
2023-02-11T12:54:06.830Z,5.60
2023-02-11T12:56:20.858Z,5.75
2023-02-11T12:57:00.991Z,5.81
2023-02-11T12:57:43.662Z,5.89
2023-02-11T12:58:42.938Z,5.90
2023-02-11T12:59:34.963Z,5.83
2023-02-11T13:00:27.733Z,5.98
2023-02-11T13:01:22.535Z,5.89
2023-02-11T13:02:30.876Z,5.94
2023-02-11T13:03:18.440Z,5.86
2023-02-11T13:04:08.595Z,5.90
2023-02-11T13:04:56.626Z,5.84
2023-02-11T13:05:46.215Z,5.83
2023-02-11T13:06:57.086Z,5.94
2023-02-11T13:08:33.945Z,5.85
2023-02-11T13:09:22.725Z,5.91
2023-02-11T13:10:33.911Z,5.90
2023-02-11T13:13:26.768Z,5.68
2023-02-11T13:14:16.177Z,5.72
2023-02-11T13:15:03.225Z,5.83
2023-02-11T13:16:22.964Z,5.73
2023-02-11T13:17:49.157Z,5.85
2023-02-11T13:18:28.996Z,5.96
2023-02-11T13:19:34.426Z,5.75
2023-02-11T13:20:31.423Z,5.92
2023-02-11T13:21:13.136Z,5.92
2023-02-11T13:22:02.666Z,6.04
2023-02-11T13:22:54.056Z,5.96
2023-02-11T13:24:34.060Z,6.07
2023-02-11T13:25:39.195Z,6.07
2023-02-11T13:27:28.843Z,6.08
2023-02-11T13:28:17.430Z,6.19
2023-02-11T13:29:17.672Z,6.30
2023-02-11T13:30:20.363Z,6.22
2023-02-11T13:32:09.599Z,6.16
2023-02-11T13:33:34.241Z,6.10
2023-02-11T13:34:25.456Z,6.09
2023-02-11T13:35:28.354Z,6.09
2023-02-11T13:36:55.752Z,5.87
2023-02-11T13:37:48.429Z,5.92
2023-02-11T13:38:31.467Z,5.91
2023-02-11T13:39:39.006Z,5.82
2023-02-11T13:40:38.576Z,5.78
2023-02-11T13:41:21.360Z,5.71
2023-02-11T13:42:04.852Z,5.80
2023-02-11T13:43:20.122Z,5.80
2023-02-11T13:44:25.947Z,5.68
2023-02-11T13:45:06.077Z,5.61